sensor_id;sensor_type;location;lat;lon;timestamp;pressure;altitude;pressure_sealevel;temperature;humidity
25722;BME280;13578;53.450;15.496;2023-10-09T00:01:26;100519.28;;;3.53;100.00
25722;BME280;13578;53.450;15.496;2023-10-09T00:04:27;100515.41;;;3.58;100.00
25722;BME280;13578;53.450;15.496;2023-10-09T00:07:27;100519.41;;;3.69;100.00
25722;BME280;13578;53.450;15.496;2023-10-09T00:10:30;100504.06;;;3.68;100.00
25722;BME280;13578;53.450;15.496;2023-10-09T00:13:47;100499.22;;;3.74;100.00
25722;BME280;13578;53.450;15.496;2023-10-09T00:16:57;100494.59;;;3.76;100.00
25722;BME280;13578;53.450;15.496;2023-10-09T00:20:13;100492.75;;;3.77;100.00
25722;BME280;13578;53.450;15.496;2023-10-09T00:23:25;100496.59;;;3.90;100.00
25722;BME280;13578;53.450;15.496;2023-10-09T00:26:26;100489.88;;;3.97;100.00
25722;BME280;13578;53.450;15.496;2023-10-09T00:29:26;100488.78;;;4.02;100.00
25722;BME280;13578;53.450;15.496;2023-10-09T00:32:34;100490.84;;;4.14;100.00
25722;BME280;13578;53.450;15.496;2023-10-09T00:35:38;100480.16;;;4.11;100.00
25722;BME280;13578;53.450;15.496;2023-10-09T00:38:54;100476.94;;;4.20;100.00
25722;BME280;13578;53.450;15.496;2023-10-09T00:41:55;100474.06;;;4.23;100.00
25722;BME280;13578;53.450;15.496;2023-10-09T00:44:59;100473.75;;;4.29;100.00
25722;BME280;13578;53.450;15.496;2023-10-09T00:48:06;100469.88;;;4.34;100.00
25722;BME280;13578;53.450;15.496;2023-10-09T00:51:07;100473.25;;;4.39;100.00
25722;BME280;13578;53.450;15.496;2023-10-09T00:54:16;100468.44;;;4.44;100.00
25722;BME280;13578;53.450;15.496;2023-10-09T00:57:20;100455.56;;;4.48;100.00
25722;BME280;13578;53.450;15.496;2023-10-09T01:00:25;100455.41;;;4.51;100.00
25722;BME280;13578;53.450;15.496;2023-10-09T01:03:32;100444.25;;;4.55;100.00
25722;BME280;13578;53.450;15.496;2023-10-09T01:06:34;100443.75;;;4.65;100.00
25722;BME280;13578;53.450;15.496;2023-10-09T01:09:43;100425.38;;;4.70;100.00
25722;BME280;13578;53.450;15.496;2023-10-09T01:12:44;100437.81;;;4.74;100.00
25722;BME280;13578;53.450;15.496;2023-10-09T01:15:47;100428.69;;;4.75;100.00
25722;BME280;13578;53.450;15.496;2023-10-09T01:18:50;100422.66;;;4.70;100.00
25722;BME280;13578;53.450;15.496;2023-10-09T01:21:51;100417.38;;;4.67;100.00
25722;BME280;13578;53.450;15.496;2023-10-09T01:24:52;100418.06;;;4.70;100.00
25722;BME280;13578;53.450;15.496;2023-10-09T01:27:55;100418.34;;;4.82;100.00
25722;BME280;13578;53.450;15.496;2023-10-09T01:30:57;100412.56;;;4.88;100.00
25722;BME280;13578;53.450;15.496;2023-10-09T01:33:57;100410.56;;;4.91;100.00
25722;BME280;13578;53.450;15.496;2023-10-09T01:37:00;100397.03;;;4.90;100.00
25722;BME280;13578;53.450;15.496;2023-10-09T01:40:05;100399.31;;;4.98;100.00
25722;BME280;13578;53.450;15.496;2023-10-09T01:43:24;100398.16;;;5.02;100.00
25722;BME280;13578;53.450;15.496;2023-10-09T01:46:26;100393.53;;;5.04;100.00
25722;BME280;13578;53.450;15.496;2023-10-09T01:49:26;100384.03;;;5.11;100.00
25722;BME280;13578;53.450;15.496;2023-10-09T01:52:31;100376.69;;;5.13;100.00
25722;BME280;13578;53.450;15.496;2023-10-09T01:55:36;100381.91;;;5.16;100.00
25722;BME280;13578;53.450;15.496;2023-10-09T01:58:40;100381.28;;;5.27;100.00
25722;BME280;13578;53.450;15.496;2023-10-09T02:01:41;100359.63;;;5.25;100.00
25722;BME280;13578;53.450;15.496;2023-10-09T02:04:48;100365.59;;;5.32;100.00
25722;BME280;13578;53.450;15.496;2023-10-09T02:07:48;100359.78;;;5.38;100.00
25722;BME280;13578;53.450;15.496;2023-10-09T02:10:52;100348.63;;;5.43;100.00
25722;BME280;13578;53.450;15.496;2023-10-09T02:13:56;100339.56;;;5.43;100.00
25722;BME280;13578;53.450;15.496;2023-10-09T02:17:01;100344.44;;;5.52;100.00
25722;BME280;13578;53.450;15.496;2023-10-09T02:20:18;100349.00;;;5.51;100.00
25722;BME280;13578;53.450;15.496;2023-10-09T02:23:29;100344.06;;;5.58;100.00
25722;BME280;13578;53.450;15.496;2023-10-09T02:26:39;100339.31;;;5.62;100.00
25722;BME280;13578;53.450;15.496;2023-10-09T02:29:40;100336.41;;;5.65;100.00
25722;BME280;13578;53.450;15.496;2023-10-09T02:32:42;100327.19;;;5.67;100.00
25722;BME280;13578;53.450;15.496;2023-10-09T02:35:43;100322.44;;;5.71;100.00
25722;BME280;13578;53.450;15.496;2023-10-09T02:38:47;100308.69;;;5.72;100.00
25722;BME280;13578;53.450;15.496;2023-10-09T02:41:58;100291.19;;;5.77;100.00
25722;BME280;13578;53.450;15.496;2023-10-09T02:45:07;100274.09;;;5.75;100.00
25722;BME280;13578;53.450;15.496;2023-10-09T02:48:10;100271.16;;;5.78;100.00
25722;BME280;13578;53.450;15.496;2023-10-09T02:51:11;100300.03;;;5.80;100.00
25722;BME280;13578;53.450;15.496;2023-10-09T02:54:31;100275.94;;;5.88;100.00
25722;BME280;13578;53.450;15.496;2023-10-09T02:57:36;100262.22;;;5.90;100.00
25722;BME280;13578;53.450;15.496;2023-10-09T03:00:37;100259.91;;;5.98;100.00
25722;BME280;13578;53.450;15.496;2023-10-09T03:03:37;100268.25;;;5.95;100.00
25722;BME280;13578;53.450;15.496;2023-10-09T03:06:38;100259.91;;;5.98;100.00
25722;BME280;13578;53.450;15.496;2023-10-09T03:09:43;100275.09;;;6.02;100.00
25722;BME280;13578;53.450;15.496;2023-10-09T03:12:44;100255.91;;;6.04;100.00
25722;BME280;13578;53.450;15.496;2023-10-09T03:15:45;100243.19;;;6.04;100.00
25722;BME280;13578;53.450;15.496;2023-10-09T03:18:47;100233.16;;;6.05;100.00
25722;BME280;13578;53.450;15.496;2023-10-09T03:21:49;100239.50;;;6.06;100.00
25722;BME280;13578;53.450;15.496;2023-10-09T03:24:51;100215.41;;;6.12;100.00
25722;BME280;13578;53.450;15.496;2023-10-09T03:27:53;100222.75;;;6.12;100.00
25722;BME280;13578;53.450;15.496;2023-10-09T03:30:56;100211.13;;;6.23;100.00
25722;BME280;13578;53.450;15.496;2023-10-09T03:34:00;100198.28;;;6.10;100.00
25722;BME280;13578;53.450;15.496;2023-10-09T03:37:00;100212.97;;;6.22;100.00
25722;BME280;13578;53.450;15.496;2023-10-09T03:40:04;100200.72;;;6.15;100.00
25722;BME280;13578;53.450;15.496;2023-10-09T03:43:08;100193.50;;;6.14;100.00
25722;BME280;13578;53.450;15.496;2023-10-09T03:46:11;100208.97;;;6.28;100.00
25722;BME280;13578;53.450;15.496;2023-10-09T03:49:21;100234.19;;;6.31;100.00
25722;BME280;13578;53.450;15.496;2023-10-09T03:52:26;100194.66;;;6.24;100.00
25722;BME280;13578;53.450;15.496;2023-10-09T03:55:27;100193.13;;;6.20;100.00
25722;BME280;13578;53.450;15.496;2023-10-09T03:58:28;100194.81;;;6.08;100.00
25722;BME280;13578;53.450;15.496;2023-10-09T04:01:33;100203.06;;;6.07;100.00
25722;BME280;13578;53.450;15.496;2023-10-09T04:04:40;100182.94;;;6.09;100.00
25722;BME280;13578;53.450;15.496;2023-10-09T04:07:47;100176.81;;;6.06;100.00
25722;BME280;13578;53.450;15.496;2023-10-09T04:10:49;100188.09;;;5.99;100.00
25722;BME280;13578;53.450;15.496;2023-10-09T04:13:52;100181.94;;;5.96;100.00
25722;BME280;13578;53.450;15.496;2023-10-09T04:16:53;100180.97;;;5.97;100.00
25722;BME280;13578;53.450;15.496;2023-10-09T04:20:05;100210.53;;;5.88;100.00
25722;BME280;13578;53.450;15.496;2023-10-09T04:23:35;100197.72;;;5.91;100.00
25722;BME280;13578;53.450;15.496;2023-10-09T04:26:56;100185.28;;;5.86;100.00
25722;BME280;13578;53.450;15.496;2023-10-09T04:29:56;100166.09;;;5.88;100.00
25722;BME280;13578;53.450;15.496;2023-10-09T04:32:57;100176.78;;;5.91;100.00
25722;BME280;13578;53.450;15.496;2023-10-09T04:36:08;100192.94;;;5.94;100.00
25722;BME280;13578;53.450;15.496;2023-10-09T04:39:18;100154.91;;;5.93;100.00
25722;BME280;13578;53.450;15.496;2023-10-09T04:42:31;100163.75;;;5.96;100.00
25722;BME280;13578;53.450;15.496;2023-10-09T04:45:38;100155.88;;;5.92;100.00
25722;BME280;13578;53.450;15.496;2023-10-09T04:49:01;100149.53;;;5.91;100.00
25722;BME280;13578;53.450;15.496;2023-10-09T04:52:22;100150.44;;;5.92;100.00
25722;BME280;13578;53.450;15.496;2023-10-09T04:55:29;100153.25;;;5.90;100.00
25722;BME280;13578;53.450;15.496;2023-10-09T04:58:38;100140.69;;;5.87;100.00
25722;BME280;13578;53.450;15.496;2023-10-09T05:01:39;100123.84;;;5.95;100.00
25722;BME280;13578;53.450;15.496;2023-10-09T05:04:57;100123.97;;;5.94;100.00
25722;BME280;13578;53.450;15.496;2023-10-09T05:08:36;100107.41;;;5.97;100.00
25722;BME280;13578;53.450;15.496;2023-10-09T05:11:46;100094.59;;;5.99;100.00
25722;BME280;13578;53.450;15.496;2023-10-09T05:15:00;100097.13;;;6.02;100.00
25722;BME280;13578;53.450;15.496;2023-10-09T05:18:13;100093.63;;;6.00;100.00
25722;BME280;13578;53.450;15.496;2023-10-09T05:21:16;100081.63;;;6.02;100.00
25722;BME280;13578;53.450;15.496;2023-10-09T05:24:31;100101.56;;;6.03;100.00
25722;BME280;13578;53.450;15.496;2023-10-09T05:27:44;100100.59;;;6.04;100.00
25722;BME280;13578;53.450;15.496;2023-10-09T05:30:51;100092.22;;;6.07;100.00
25722;BME280;13578;53.450;15.496;2023-10-09T05:34:09;100096.91;;;6.05;100.00
25722;BME280;13578;53.450;15.496;2023-10-09T05:37:20;100080.38;;;6.08;100.00
25722;BME280;13578;53.450;15.496;2023-10-09T05:40:32;100068.38;;;6.11;100.00
25722;BME280;13578;53.450;15.496;2023-10-09T05:43:35;100068.81;;;6.17;100.00
25722;BME280;13578;53.450;15.496;2023-10-09T05:46:54;100079.72;;;6.17;100.00
25722;BME280;13578;53.450;15.496;2023-10-09T05:50:26;100070.38;;;6.22;100.00
25722;BME280;13578;53.450;15.496;2023-10-09T05:53:26;100083.88;;;6.23;100.00
25722;BME280;13578;53.450;15.496;2023-10-09T05:56:59;100073.22;;;6.33;100.00
25722;BME280;13578;53.450;15.496;2023-10-09T06:00:20;100088.63;;;6.34;100.00
25722;BME280;13578;53.450;15.496;2023-10-09T06:03:59;100075.44;;;6.41;100.00
25722;BME280;13578;53.450;15.496;2023-10-09T06:07:15;100072.41;;;6.45;100.00
25722;BME280;13578;53.450;15.496;2023-10-09T06:10:23;100073.94;;;6.49;100.00
25722;BME280;13578;53.450;15.496;2023-10-09T06:13:40;100064.34;;;6.57;100.00
25722;BME280;13578;53.450;15.496;2023-10-09T06:16:47;100046.47;;;6.53;100.00
25722;BME280;13578;53.450;15.496;2023-10-09T06:19:57;100057.16;;;6.56;100.00
25722;BME280;13578;53.450;15.496;2023-10-09T06:23:20;100052.16;;;6.62;100.00
25722;BME280;13578;53.450;15.496;2023-10-09T06:26:42;100062.50;;;6.70;100.00
25722;BME280;13578;53.450;15.496;2023-10-09T06:30:07;100078.13;;;6.81;100.00
25722;BME280;13578;53.450;15.496;2023-10-09T06:33:13;100063.31;;;6.85;100.00
25722;BME280;13578;53.450;15.496;2023-10-09T06:36:20;100072.69;;;6.94;100.00
25722;BME280;13578;53.450;15.496;2023-10-09T06:39:31;100075.63;;;6.91;100.00
25722;BME280;13578;53.450;15.496;2023-10-09T06:42:50;100106.63;;;7.03;100.00
25722;BME280;13578;53.450;15.496;2023-10-09T06:45:56;100102.81;;;7.05;100.00
25722;BME280;13578;53.450;15.496;2023-10-09T06:49:16;100106.63;;;7.03;100.00
25722;BME280;13578;53.450;15.496;2023-10-09T06:52:30;100086.34;;;7.07;100.00
25722;BME280;13578;53.450;15.496;2023-10-09T06:55:51;100085.78;;;7.14;100.00
25722;BME280;13578;53.450;15.496;2023-10-09T06:58:52;100046.72;;;7.27;100.00
25722;BME280;13578;53.450;15.496;2023-10-09T07:01:55;100044.91;;;7.39;100.00
25722;BME280;13578;53.450;15.496;2023-10-09T07:05:14;100099.97;;;7.45;100.00
25722;BME280;13578;53.450;15.496;2023-10-09T07:08:17;100070.00;;;7.57;100.00
25722;BME280;13578;53.450;15.496;2023-10-09T07:11:49;100069.34;;;7.66;100.00
25722;BME280;13578;53.450;15.496;2023-10-09T07:14:50;100082.78;;;7.69;100.00
25722;BME280;13578;53.450;15.496;2023-10-09T07:17:50;100074.59;;;7.69;100.00
25722;BME280;13578;53.450;15.496;2023-10-09T07:20:53;100073.88;;;7.78;100.00
25722;BME280;13578;53.450;15.496;2023-10-09T07:23:59;100097.81;;;7.75;100.00
25722;BME280;13578;53.450;15.496;2023-10-09T07:27:21;100083.09;;;7.77;100.00
25722;BME280;13578;53.450;15.496;2023-10-09T07:30:42;100089.84;;;7.85;100.00
25722;BME280;13578;53.450;15.496;2023-10-09T07:33:43;100128.41;;;7.93;100.00
25722;BME280;13578;53.450;15.496;2023-10-09T07:36:57;100108.91;;;7.98;100.00
25722;BME280;13578;53.450;15.496;2023-10-09T07:39:57;100109.50;;;7.90;100.00
25722;BME280;13578;53.450;15.496;2023-10-09T07:42:58;100099.03;;;7.84;100.00
25722;BME280;13578;53.450;15.496;2023-10-09T07:46:06;100114.75;;;7.93;100.00
25722;BME280;13578;53.450;15.496;2023-10-09T07:49:10;100085.22;;;7.98;100.00
25722;BME280;13578;53.450;15.496;2023-10-09T07:52:12;100080.44;;;8.13;100.00
25722;BME280;13578;53.450;15.496;2023-10-09T07:55:13;100094.00;;;8.15;100.00
25722;BME280;13578;53.450;15.496;2023-10-09T07:58:27;100084.22;;;8.23;100.00
25722;BME280;13578;53.450;15.496;2023-10-09T08:01:29;100079.16;;;8.30;100.00
25722;BME280;13578;53.450;15.496;2023-10-09T08:04:35;100087.06;;;8.46;100.00
25722;BME280;13578;53.450;15.496;2023-10-09T08:07:48;100112.31;;;8.63;100.00
25722;BME280;13578;53.450;15.496;2023-10-09T08:11:11;100097.88;;;8.72;100.00
25722;BME280;13578;53.450;15.496;2023-10-09T08:14:31;100089.19;;;8.78;100.00
25722;BME280;13578;53.450;15.496;2023-10-09T08:17:34;100086.88;;;8.85;100.00
25722;BME280;13578;53.450;15.496;2023-10-09T08:20:37;100117.63;;;9.00;100.00
25722;BME280;13578;53.450;15.496;2023-10-09T08:23:56;100086.41;;;9.02;100.00
25722;BME280;13578;53.450;15.496;2023-10-09T08:27:05;100083.41;;;8.94;100.00
25722;BME280;13578;53.450;15.496;2023-10-09T08:30:25;100084.34;;;8.82;100.00
25722;BME280;13578;53.450;15.496;2023-10-09T08:33:26;100089.66;;;8.36;100.00
25722;BME280;13578;53.450;15.496;2023-10-09T08:36:27;100093.84;;;8.29;100.00
25722;BME280;13578;53.450;15.496;2023-10-09T08:39:28;100094.28;;;8.23;100.00
25722;BME280;13578;53.450;15.496;2023-10-09T08:42:33;100094.91;;;8.26;100.00
25722;BME280;13578;53.450;15.496;2023-10-09T08:45:38;100106.91;;;8.13;100.00
25722;BME280;13578;53.450;15.496;2023-10-09T08:48:39;100112.13;;;8.16;100.00
25722;BME280;13578;53.450;15.496;2023-10-09T08:51:40;100119.47;;;8.15;100.00
25722;BME280;13578;53.450;15.496;2023-10-09T08:54:43;100126.28;;;8.09;100.00
25722;BME280;13578;53.450;15.496;2023-10-09T08:57:46;100127.34;;;8.20;100.00
25722;BME280;13578;53.450;15.496;2023-10-09T09:00:47;100125.97;;;8.01;100.00
25722;BME280;13578;53.450;15.496;2023-10-09T09:03:49;100119.47;;;8.15;100.00
25722;BME280;13578;53.450;15.496;2023-10-09T09:06:50;100116.22;;;8.10;100.00
25722;BME280;13578;53.450;15.496;2023-10-09T09:09:58;100121.19;;;8.29;100.00
25722;BME280;13578;53.450;15.496;2023-10-09T09:13:17;100113.06;;;8.27;100.00
25722;BME280;13578;53.450;15.496;2023-10-09T09:16:22;100132.97;;;8.30;100.00
25722;BME280;13578;53.450;15.496;2023-10-09T09:19:33;100127.84;;;8.25;100.00
25722;BME280;13578;53.450;15.496;2023-10-09T09:22:54;100118.06;;;8.34;100.00
25722;BME280;13578;53.450;15.496;2023-10-09T09:25:58;100109.53;;;8.38;100.00
25722;BME280;13578;53.450;15.496;2023-10-09T09:28:59;100120.88;;;8.45;100.00
25722;BME280;13578;53.450;15.496;2023-10-09T09:32:00;100110.38;;;8.52;100.00
25722;BME280;13578;53.450;15.496;2023-10-09T09:35:16;100119.16;;;8.68;100.00
25722;BME280;13578;53.450;15.496;2023-10-09T09:38:20;100163.28;;;8.64;100.00
25722;BME280;13578;53.450;15.496;2023-10-09T09:41:23;100117.53;;;8.66;100.00
25722;BME280;13578;53.450;15.496;2023-10-09T09:44:26;100114.22;;;8.73;100.00
25722;BME280;13578;53.450;15.496;2023-10-09T09:47:31;100120.41;;;8.76;100.00
25722;BME280;13578;53.450;15.496;2023-10-09T09:50:36;100112.97;;;8.78;100.00
25722;BME280;13578;53.450;15.496;2023-10-09T09:53:47;100112.84;;;8.79;100.00
25722;BME280;13578;53.450;15.496;2023-10-09T09:56:48;100132.41;;;8.86;100.00
25722;BME280;13578;53.450;15.496;2023-10-09T09:59:52;100128.63;;;8.76;100.00
25722;BME280;13578;53.450;15.496;2023-10-09T10:02:57;100114.75;;;8.90;100.00
25722;BME280;13578;53.450;15.496;2023-10-09T10:06:00;100113.03;;;9.00;100.00
25722;BME280;13578;53.450;15.496;2023-10-09T10:09:10;100113.03;;;9.12;100.00
25722;BME280;13578;53.450;15.496;2023-10-09T10:12:11;100101.00;;;9.26;100.00
25722;BME280;13578;53.450;15.496;2023-10-09T10:15:12;100108.22;;;9.38;100.00
25722;BME280;13578;53.450;15.496;2023-10-09T10:18:15;100095.53;;;9.48;100.00
25722;BME280;13578;53.450;15.496;2023-10-09T10:21:19;100080.34;;;9.67;100.00
25722;BME280;13578;53.450;15.496;2023-10-09T10:24:41;100094.41;;;9.74;100.00
25722;BME280;13578;53.450;15.496;2023-10-09T10:31:52;100095.00;;;10.00;100.00
25722;BME280;13578;53.450;15.496;2023-10-09T10:34:54;100083.66;;;10.05;100.00
25722;BME280;13578;53.450;15.496;2023-10-09T10:37:58;100083.47;;;10.17;100.00
25722;BME280;13578;53.450;15.496;2023-10-09T10:41:18;100070.75;;;10.28;100.00
25722;BME280;13578;53.450;15.496;2023-10-09T10:44:32;100069.00;;;10.38;100.00
25722;BME280;13578;53.450;15.496;2023-10-09T10:47:42;100076.22;;;10.39;100.00
25722;BME280;13578;53.450;15.496;2023-10-09T10:50:43;100057.91;;;10.40;100.00
25722;BME280;13578;53.450;15.496;2023-10-09T10:53:52;100063.09;;;10.43;100.00
25722;BME280;13578;53.450;15.496;2023-10-09T10:56:57;100076.44;;;10.47;100.00
25722;BME280;13578;53.450;15.496;2023-10-09T11:00:00;100083.88;;;10.57;100.00
25722;BME280;13578;53.450;15.496;2023-10-09T11:03:20;100062.00;;;10.67;100.00
25722;BME280;13578;53.450;15.496;2023-10-09T11:06:30;100060.59;;;10.72;100.00
25722;BME280;13578;53.450;15.496;2023-10-09T11:09:51;100069.59;;;10.74;100.00
25722;BME280;13578;53.450;15.496;2023-10-09T11:13:04;100066.25;;;10.71;100.00
25722;BME280;13578;53.450;15.496;2023-10-09T11:16:08;100082.72;;;10.71;100.00
25722;BME280;13578;53.450;15.496;2023-10-09T11:19:21;100053.56;;;10.79;100.00
25722;BME280;13578;53.450;15.496;2023-10-09T11:22:27;100034.38;;;10.79;100.00
25722;BME280;13578;53.450;15.496;2023-10-09T11:25:28;100055.38;;;10.90;100.00
25722;BME280;13578;53.450;15.496;2023-10-09T11:28:30;100055.25;;;10.92;100.00
25722;BME280;13578;53.450;15.496;2023-10-09T11:31:58;100066.38;;;10.90;100.00
25722;BME280;13578;53.450;15.496;2023-10-09T11:35:11;100055.78;;;10.86;100.00
25722;BME280;13578;53.450;15.496;2023-10-09T11:38:12;100067.38;;;10.89;100.00
25722;BME280;13578;53.450;15.496;2023-10-09T11:41:21;100036.63;;;10.95;100.00
25722;BME280;13578;53.450;15.496;2023-10-09T11:44:41;100055.59;;;10.99;100.00
25722;BME280;13578;53.450;15.496;2023-10-09T11:47:49;100040.47;;;11.04;100.00
25722;BME280;13578;53.450;15.496;2023-10-09T11:51:04;100024.31;;;11.21;100.00
25722;BME280;13578;53.450;15.496;2023-10-09T11:54:05;100043.31;;;11.03;100.00
25722;BME280;13578;53.450;15.496;2023-10-09T11:57:09;100023.63;;;10.98;100.00
25722;BME280;13578;53.450;15.496;2023-10-09T12:00:09;100019.75;;;11.00;100.00
25722;BME280;13578;53.450;15.496;2023-10-09T12:03:26;100029.03;;;11.09;100.00
25722;BME280;13578;53.450;15.496;2023-10-09T12:06:30;100035.56;;;11.08;100.00
25722;BME280;13578;53.450;15.496;2023-10-09T12:09:33;100017.78;;;11.12;100.00
25722;BME280;13578;53.450;15.496;2023-10-09T12:12:35;100015.50;;;11.17;100.00
25722;BME280;13578;53.450;15.496;2023-10-09T12:15:36;99996.56;;;11.14;100.00
25722;BME280;13578;53.450;15.496;2023-10-09T12:18:39;100003.31;;;11.10;100.00
25722;BME280;13578;53.450;15.496;2023-10-09T12:21:40;100017.03;;;11.10;100.00
25722;BME280;13578;53.450;15.496;2023-10-09T12:24:43;99991.19;;;11.12;100.00
25722;BME280;13578;53.450;15.496;2023-10-09T12:27:43;99990.91;;;11.16;100.00
25722;BME280;13578;53.450;15.496;2023-10-09T12:30:44;99995.75;;;11.23;100.00
25722;BME280;13578;53.450;15.496;2023-10-09T12:33:50;100012.38;;;11.32;100.00
25722;BME280;13578;53.450;15.496;2023-10-09T12:36:55;100014.75;;;11.46;100.00
25722;BME280;13578;53.450;15.496;2023-10-09T12:39:55;100019.84;;;11.60;100.00
25722;BME280;13578;53.450;15.496;2023-10-09T12:42:57;100022.06;;;11.67;100.00
25722;BME280;13578;53.450;15.496;2023-10-09T12:46:04;99999.91;;;11.58;100.00
25722;BME280;13578;53.450;15.496;2023-10-09T12:49:06;100000.00;;;11.47;100.00
25722;BME280;13578;53.450;15.496;2023-10-09T12:52:07;99985.56;;;11.45;100.00
25722;BME280;13578;53.450;15.496;2023-10-09T12:55:17;99994.50;;;11.47;100.00
25722;BME280;13578;53.450;15.496;2023-10-09T12:58:19;99981.31;;;11.41;100.00
25722;BME280;13578;53.450;15.496;2023-10-09T13:01:21;99972.94;;;11.42;100.00
25722;BME280;13578;53.450;15.496;2023-10-09T13:04:22;100004.66;;;11.56;100.00
25722;BME280;13578;53.450;15.496;2023-10-09T13:07:23;99962.44;;;11.57;100.00
25722;BME280;13578;53.450;15.496;2023-10-09T13:10:24;100007.56;;;11.55;100.00
25722;BME280;13578;53.450;15.496;2023-10-09T13:13:28;99968.19;;;11.54;100.00
25722;BME280;13578;53.450;15.496;2023-10-09T13:16:42;99975.75;;;11.52;100.00
25722;BME280;13578;53.450;15.496;2023-10-09T13:19:43;99980.97;;;11.65;100.00
25722;BME280;13578;53.450;15.496;2023-10-09T13:22:44;99973.88;;;11.72;100.00
25722;BME280;13578;53.450;15.496;2023-10-09T13:25:49;99960.59;;;11.78;100.00
25722;BME280;13578;53.450;15.496;2023-10-09T13:28:51;99961.31;;;11.80;100.00
25722;BME280;13578;53.450;15.496;2023-10-09T13:31:52;99954.53;;;11.74;100.00
25722;BME280;13578;53.450;15.496;2023-10-09T13:35:03;99949.28;;;11.71;100.00
25722;BME280;13578;53.450;15.496;2023-10-09T13:38:04;99950.28;;;11.70;100.00
25722;BME280;13578;53.450;15.496;2023-10-09T13:41:10;99937.53;;;11.59;100.00
25722;BME280;13578;53.450;15.496;2023-10-09T13:44:13;99980.66;;;11.58;100.00
25722;BME280;13578;53.450;15.496;2023-10-09T13:47:13;99966.78;;;11.70;100.00
25722;BME280;13578;53.450;15.496;2023-10-09T13:50:19;99964.19;;;11.58;100.00
25722;BME280;13578;53.450;15.496;2023-10-09T13:53:22;99960.13;;;11.72;100.00
25722;BME280;13578;53.450;15.496;2023-10-09T13:56:24;99949.53;;;11.58;100.00
25722;BME280;13578;53.450;15.496;2023-10-09T13:59:27;99963.59;;;11.65;100.00
25722;BME280;13578;53.450;15.496;2023-10-09T14:02:28;99975.78;;;11.72;100.00
25722;BME280;13578;53.450;15.496;2023-10-09T14:05:28;99965.78;;;11.71;100.00
25722;BME280;13578;53.450;15.496;2023-10-09T14:08:29;99963.59;;;11.65;100.00
25722;BME280;13578;53.450;15.496;2023-10-09T14:11:33;99966.34;;;11.65;100.00
25722;BME280;13578;53.450;15.496;2023-10-09T14:14:39;99970.38;;;11.60;100.00
25722;BME280;13578;53.450;15.496;2023-10-09T14:17:47;99974.88;;;11.62;100.00
25722;BME280;13578;53.450;15.496;2023-10-09T14:20:47;99971.84;;;11.65;100.00
25722;BME280;13578;53.450;15.496;2023-10-09T14:23:49;99960.28;;;11.71;100.00
25722;BME280;13578;53.450;15.496;2023-10-09T14:26:50;99953.88;;;11.60;100.00
25722;BME280;13578;53.450;15.496;2023-10-09T14:29:53;99942.75;;;11.52;100.00
25722;BME280;13578;53.450;15.496;2023-10-09T14:32:59;99958.34;;;11.42;100.00
25722;BME280;13578;53.450;15.496;2023-10-09T14:36:02;99963.69;;;11.43;100.00
25722;BME280;13578;53.450;15.496;2023-10-09T14:39:05;99987.81;;;11.40;100.00
25722;BME280;13578;53.450;15.496;2023-10-09T14:42:07;99993.47;;;11.38;100.00
25722;BME280;13578;53.450;15.496;2023-10-09T14:45:11;99988.84;;;11.39;100.00
25722;BME280;13578;53.450;15.496;2023-10-09T14:48:16;99957.16;;;11.35;100.00
25722;BME280;13578;53.450;15.496;2023-10-09T14:51:24;99973.06;;;11.31;100.00
25722;BME280;13578;53.450;15.496;2023-10-09T14:54:27;99966.41;;;11.34;100.00
25722;BME280;13578;53.450;15.496;2023-10-09T14:57:28;99946.59;;;11.30;100.00
25722;BME280;13578;53.450;15.496;2023-10-09T15:00:28;99974.75;;;11.22;100.00
25722;BME280;13578;53.450;15.496;2023-10-09T15:03:34;99938.16;;;11.22;100.00
25722;BME280;13578;53.450;15.496;2023-10-09T15:06:37;99958.53;;;11.19;100.00
25722;BME280;13578;53.450;15.496;2023-10-09T15:09:38;99985.69;;;11.12;100.00
25722;BME280;13578;53.450;15.496;2023-10-09T15:12:42;99943.47;;;11.13;100.00
25722;BME280;13578;53.450;15.496;2023-10-09T15:15:44;99976.31;;;11.15;100.00
25722;BME280;13578;53.450;15.496;2023-10-09T15:18:45;99951.88;;;11.12;100.00
25722;BME280;13578;53.450;15.496;2023-10-09T15:21:47;99941.69;;;11.03;100.00
25722;BME280;13578;53.450;15.496;2023-10-09T15:24:47;99972.19;;;11.00;100.00
25722;BME280;13578;53.450;15.496;2023-10-09T15:27:49;99938.72;;;10.85;100.00
25722;BME280;13578;53.450;15.496;2023-10-09T15:30:50;99962.25;;;10.77;100.00
25722;BME280;13578;53.450;15.496;2023-10-09T15:33:51;99979.13;;;10.73;100.00
25722;BME280;13578;53.450;15.496;2023-10-09T15:36:52;99967.13;;;10.74;100.00
25722;BME280;13578;53.450;15.496;2023-10-09T15:39:53;99963.19;;;10.67;100.00
25722;BME280;13578;53.450;15.496;2023-10-09T15:42:54;99972.44;;;10.65;100.00
25722;BME280;13578;53.450;15.496;2023-10-09T15:45:56;99983.84;;;10.61;100.00
25722;BME280;13578;53.450;15.496;2023-10-09T15:48:59;100021.22;;;10.62;100.00
25722;BME280;13578;53.450;15.496;2023-10-09T15:52:01;99988.59;;;10.59;100.00
25722;BME280;13578;53.450;15.496;2023-10-09T15:55:01;99991.31;;;10.59;100.00
25722;BME280;13578;53.450;15.496;2023-10-09T15:58:02;99997.47;;;10.51;100.00
25722;BME280;13578;53.450;15.496;2023-10-09T16:01:05;100005.47;;;10.43;100.00
25722;BME280;13578;53.450;15.496;2023-10-09T16:04:05;99981.81;;;10.42;100.00